createdAt,value
2018-01-18T00:01:20.622Z,97.40
2018-01-18T00:03:49.290Z,97.40
2018-01-18T00:06:16.914Z,97.50
2018-01-18T00:08:44.500Z,97.60
2018-01-18T00:11:12.095Z,97.50
2018-01-18T00:13:39.657Z,97.50
2018-01-18T00:16:07.265Z,97.50
2018-01-18T00:18:34.882Z,97.60
2018-01-18T00:21:02.444Z,97.60
2018-01-18T00:23:31.146Z,97.70
2018-01-18T00:25:58.730Z,97.70
2018-01-18T00:28:26.325Z,98.10
2018-01-18T00:30:54.470Z,97.90
2018-01-18T00:33:23.293Z,97.70
2018-01-18T00:35:50.869Z,97.60
2018-01-18T00:38:19.253Z,97.60
2018-01-18T00:40:46.807Z,97.50
2018-01-18T00:43:15.371Z,97.70
2018-01-18T00:45:42.936Z,97.70
2018-01-18T00:48:11.489Z,97.50
2018-01-18T00:50:39.078Z,97.50
2018-01-18T00:53:06.704Z,97.40
2018-01-18T00:55:34.271Z,97.40
2018-01-18T00:58:01.872Z,97.50
2018-01-18T01:00:29.478Z,97.50
2018-01-18T01:02:57.107Z,97.80
2018-01-18T01:05:25.458Z,97.70
2018-01-18T01:07:54.796Z,97.80
2018-01-18T01:10:24.105Z,97.40
2018-01-18T01:12:53.765Z,97.50
2018-01-18T01:15:21.358Z,97.50
2018-01-18T01:17:50.242Z,97.70
2018-01-18T01:20:18.585Z,97.70
2018-01-18T01:22:46.343Z,97.80
2018-01-18T01:25:14.710Z,98.20
2018-01-18T01:27:42.419Z,98.10
2018-01-18T01:30:10.753Z,98.40
2018-01-18T01:32:38.347Z,98.40
2018-01-18T01:35:05.908Z,98.60
2018-01-18T01:37:34.477Z,98.60
2018-01-18T01:40:02.041Z,98.60
2018-01-18T01:42:29.593Z,98.70
2018-01-18T01:44:57.210Z,98.70
2018-01-18T01:47:24.841Z,98.80
2018-01-18T01:49:54.194Z,99.00
2018-01-18T01:52:22.489Z,99.00
2018-01-18T01:54:50.094Z,99.10
2018-01-18T01:57:17.766Z,99.10
2018-01-18T01:59:45.365Z,99.10
2018-01-18T02:02:12.958Z,99.10
2018-01-18T02:04:40.560Z,99.20
2018-01-18T02:07:08.169Z,99.40
2018-01-18T02:09:35.769Z,99.10
2018-01-18T02:12:05.214Z,99.20
2018-01-18T02:14:32.824Z,99.20
2018-01-18T02:17:00.451Z,99.20
2018-01-18T02:19:28.029Z,99.30
2018-01-18T02:21:55.788Z,99.30
2018-01-18T02:24:24.670Z,99.20
2018-01-18T02:26:53.694Z,99.10
2018-01-18T02:29:21.255Z,99.00
2018-01-18T02:31:49.820Z,98.80
2018-01-18T02:34:17.382Z,98.80
2018-01-18T02:36:45.049Z,98.70
2018-01-18T02:39:12.631Z,98.80
2018-01-18T02:41:40.263Z,98.80
2018-01-18T02:44:08.606Z,98.60
2018-01-18T02:46:37.967Z,98.60
2018-01-18T02:49:05.529Z,98.60
2018-01-18T02:51:33.156Z,98.60
2018-01-18T02:54:00.711Z,98.60
2018-01-18T02:56:28.381Z,98.60
2018-01-18T02:58:55.966Z,98.50
2018-01-18T03:01:24.372Z,98.60
2018-01-18T03:03:52.472Z,98.60
2018-01-18T03:06:20.081Z,98.60
2018-01-18T03:08:47.676Z,98.60
2018-01-18T03:11:15.254Z,98.70
2018-01-18T03:13:42.860Z,98.70
2018-01-18T03:16:10.478Z,98.70
2018-01-18T03:18:38.834Z,98.80
2018-01-18T03:21:06.683Z,98.80
2018-01-18T03:23:34.327Z,98.90
2018-01-18T03:26:01.889Z,98.90
2018-01-18T03:28:29.488Z,99.00
2018-01-18T03:30:57.071Z,98.90
2018-01-18T03:33:24.681Z,99.00
2018-01-18T03:35:52.895Z,99.10
2018-01-18T03:38:21.274Z,99.40
2018-01-18T03:40:49.053Z,99.30
2018-01-18T03:43:16.654Z,99.40
2018-01-18T03:45:44.257Z,99.50
2018-01-18T03:48:12.690Z,99.40
2018-01-18T03:50:40.455Z,99.40
2018-01-18T03:53:08.791Z,99.40
2018-01-18T03:55:36.586Z,99.40
2018-01-18T03:58:04.180Z,99.40
2018-01-18T04:00:31.791Z,99.20
2018-01-18T04:02:59.374Z,99.10
2018-01-18T04:05:27.021Z,99.20
2018-01-18T04:07:54.603Z,99.00
2018-01-18T04:10:23.397Z,98.90
2018-01-18T04:12:50.981Z,98.70
2018-01-18T04:15:18.689Z,98.70
2018-01-18T04:17:46.264Z,98.50
2018-01-18T04:20:13.867Z,98.50
2018-01-18T04:22:41.442Z,98.50
2018-01-18T04:25:10.076Z,98.30
2018-01-18T04:27:37.636Z,98.10
2018-01-18T04:30:05.252Z,97.90
2018-01-18T04:32:32.823Z,98.10
2018-01-18T04:35:00.441Z,98.20
2018-01-18T04:37:28.055Z,98.00
2018-01-18T04:39:55.647Z,98.00
2018-01-18T04:42:24.383Z,98.00
2018-01-18T04:44:53.160Z,97.90
2018-01-18T04:47:20.744Z,97.70
2018-01-18T04:49:48.323Z,97.80
2018-01-18T04:52:15.925Z,97.70
2018-01-18T04:54:43.484Z,97.70
2018-01-18T04:57:11.856Z,97.80
2018-01-18T04:59:39.633Z,97.80
2018-01-18T05:02:08.005Z,97.80
2018-01-18T05:04:35.775Z,97.80
2018-01-18T05:07:04.134Z,97.90
2018-01-18T05:09:31.977Z,98.00
2018-01-18T05:11:59.587Z,98.00
2018-01-18T05:14:27.182Z,98.00
2018-01-18T05:16:54.801Z,98.00
2018-01-18T05:19:24.573Z,98.00
2018-01-18T05:21:53.071Z,98.00
2018-01-18T05:24:20.681Z,98.00
2018-01-18T05:26:48.264Z,98.10
2018-01-18T05:29:15.876Z,98.10
2018-01-18T05:31:43.431Z,98.20
2018-01-18T05:34:12.044Z,98.10
2018-01-18T05:36:39.611Z,98.00
2018-01-18T05:39:07.232Z,98.10
2018-01-18T05:41:34.794Z,98.10
2018-01-18T05:44:02.510Z,97.90
2018-01-18T05:46:30.093Z,97.90
2018-01-18T05:48:57.725Z,97.80
2018-01-18T05:51:26.059Z,97.50
2018-01-18T05:53:54.739Z,97.50
2018-01-18T05:56:22.381Z,97.40
2018-01-18T05:58:49.955Z,97.50
2018-01-18T06:01:17.562Z,97.60
2018-01-18T06:03:45.144Z,97.70
2018-01-18T06:06:12.753Z,97.80
2018-01-18T06:08:41.376Z,97.90
2018-01-18T06:11:08.981Z,97.90
2018-01-18T06:13:36.552Z,97.90
2018-01-18T06:16:04.155Z,98.00
2018-01-18T06:18:31.758Z,98.00
2018-01-18T06:20:59.338Z,97.90
2018-01-18T06:23:26.967Z,97.90
2018-01-18T06:25:55.305Z,98.00
2018-01-18T06:28:23.946Z,97.90
2018-01-18T06:30:51.529Z,98.00
2018-01-18T06:33:19.726Z,97.90
2018-01-18T06:35:47.284Z,97.80
2018-01-18T06:38:15.189Z,97.80
2018-01-18T06:40:42.750Z,97.70
2018-01-18T06:43:10.343Z,97.70
2018-01-18T06:45:37.915Z,97.40
2018-01-18T06:48:06.522Z,97.50
2018-01-18T06:50:34.134Z,97.50
2018-01-18T06:53:01.697Z,97.20
2018-01-18T06:55:29.291Z,97.10
2018-01-18T06:57:56.884Z,97.20
2018-01-18T07:00:24.494Z,97.20
2018-01-18T07:02:52.694Z,97.20
2018-01-18T07:05:20.319Z,97.20
2018-01-18T07:07:47.943Z,97.20
2018-01-18T07:10:15.555Z,97.00
2018-01-18T07:12:43.144Z,96.90
2018-01-18T07:15:10.750Z,96.80
2018-01-18T07:17:39.291Z,96.30
2018-01-18T07:20:06.852Z,96.30
2018-01-18T07:22:35.195Z,96.40
2018-01-18T07:25:02.768Z,96.40
2018-01-18T07:27:30.363Z,96.40
2018-01-18T07:29:57.924Z,96.30
2018-01-18T07:32:25.588Z,96.30
2018-01-18T07:34:53.933Z,96.20
2018-01-18T07:37:23.758Z,96.00
2018-01-18T07:39:51.338Z,96.00
2018-01-18T07:42:19.196Z,95.90
2018-01-18T07:44:47.523Z,95.70
2018-01-18T07:47:15.341Z,95.70
2018-01-18T07:49:42.902Z,95.90
2018-01-18T07:52:10.505Z,95.60
2018-01-18T07:54:38.078Z,95.80
2018-01-18T07:57:11.407Z,95.70
2018-01-18T07:59:39.024Z,95.70
2018-01-18T08:02:06.689Z,95.70
2018-01-18T08:04:34.284Z,95.70
2018-01-18T08:07:02.962Z,95.50
2018-01-18T08:09:30.568Z,95.60
2018-01-18T08:11:58.145Z,95.20
2018-01-18T08:14:25.745Z,95.20
2018-01-18T08:16:54.510Z,95.50
2018-01-18T08:19:23.224Z,95.60
2018-01-18T08:21:52.351Z,95.90
2018-01-18T08:24:19.957Z,95.80
2018-01-18T08:26:47.813Z,95.90
2018-01-18T08:29:15.401Z,96.10
2018-01-18T08:31:42.971Z,96.20
2018-01-18T08:34:11.347Z,96.80
2018-01-18T08:36:39.168Z,96.80
2018-01-18T08:39:07.504Z,97.20
2018-01-18T08:41:35.283Z,97.30
2018-01-18T08:44:02.945Z,97.60
2018-01-18T08:46:31.488Z,98.00
2018-01-18T08:48:59.038Z,98.00
2018-01-18T08:51:27.523Z,98.50
2018-01-18T08:53:55.092Z,98.50
2018-01-18T08:56:23.786Z,99.00
2018-01-18T08:58:51.351Z,99.30
2018-01-18T09:01:18.956Z,99.40
2018-01-18T09:03:46.535Z,99.80
2018-01-18T09:06:14.129Z,99.90
2018-01-18T09:08:41.715Z,99.90
2018-01-18T09:11:09.339Z,99.90
2018-01-18T09:13:37.667Z,99.90
2018-01-18T09:16:05.504Z,99.90
2018-01-18T09:18:33.074Z,99.90
2018-01-18T09:21:00.678Z,99.90
2018-01-18T09:23:28.282Z,99.90
2018-01-18T09:25:56.905Z,99.90
2018-01-18T09:28:25.281Z,99.90
2018-01-18T09:30:54.302Z,99.90
2018-01-18T09:33:22.330Z,99.90
2018-01-18T09:35:50.111Z,99.90
2018-01-18T09:38:17.715Z,99.90
2018-01-18T09:40:46.451Z,99.90
2018-01-18T09:43:14.055Z,99.90
2018-01-18T09:45:41.690Z,99.90
2018-01-18T09:48:09.294Z,99.90
2018-01-18T09:50:36.913Z,99.90
2018-01-18T09:53:04.513Z,99.90
2018-01-18T09:55:33.155Z,99.90
2018-01-18T09:58:00.713Z,99.90
2018-01-18T10:00:29.271Z,99.90
2018-01-18T10:02:56.859Z,99.90
2018-01-18T10:05:24.468Z,99.90
2018-01-18T10:07:52.654Z,99.90
2018-01-18T10:10:20.277Z,99.90
2018-01-18T10:12:47.857Z,99.90
2018-01-18T10:15:18.262Z,99.90
2018-01-18T10:17:45.841Z,99.90
2018-01-18T10:20:13.497Z,99.90
2018-01-18T10:22:41.061Z,99.90
2018-01-18T10:25:09.710Z,99.90
2018-01-18T10:27:37.297Z,99.90
2018-01-18T10:30:04.887Z,99.90
2018-01-18T10:32:32.489Z,99.90
2018-01-18T10:35:00.067Z,99.90
2018-01-18T10:37:27.679Z,99.90
2018-01-18T10:39:55.255Z,99.90
2018-01-18T10:42:23.636Z,99.90
2018-01-18T10:44:51.407Z,99.90
2018-01-18T10:47:19.020Z,99.90
2018-01-18T10:49:46.620Z,99.90
2018-01-18T10:52:14.218Z,99.90
2018-01-18T10:54:42.836Z,99.90
2018-01-18T10:57:11.198Z,99.90
2018-01-18T10:59:39.877Z,99.90
2018-01-18T11:02:07.479Z,99.90
2018-01-18T11:04:35.040Z,99.90
2018-01-18T11:07:02.619Z,99.90
2018-01-18T11:09:30.330Z,99.90
2018-01-18T11:11:57.900Z,99.90
2018-01-18T11:14:25.500Z,99.90
2018-01-18T11:16:53.711Z,99.90
2018-01-18T11:19:21.337Z,99.90
2018-01-18T11:21:49.661Z,99.90
2018-01-18T11:24:17.573Z,99.90
2018-01-18T11:26:45.131Z,99.90
2018-01-18T11:29:14.060Z,99.90
2018-01-18T11:31:41.634Z,99.90
2018-01-18T11:34:09.225Z,99.90
2018-01-18T11:36:36.793Z,99.90
2018-01-18T11:39:06.257Z,99.90
2018-01-18T11:41:33.837Z,99.90
2018-01-18T11:44:01.399Z,99.90
2018-01-18T11:46:28.994Z,99.90
2018-01-18T11:48:56.629Z,99.90
2018-01-18T11:51:24.238Z,99.90
2018-01-18T11:53:52.844Z,99.90
2018-01-18T11:56:21.196Z,99.90
2018-01-18T11:58:48.941Z,99.90
2018-01-18T12:01:17.309Z,99.90
2018-01-18T12:03:45.033Z,99.90
2018-01-18T12:06:13.384Z,99.90
2018-01-18T12:08:40.954Z,99.90
2018-01-18T12:11:08.545Z,99.90
2018-01-18T12:13:36.105Z,99.90
2018-01-18T12:16:03.692Z,99.90
2018-01-18T12:18:31.336Z,99.90
2018-01-18T12:20:59.717Z,99.90
2018-01-18T12:23:28.064Z,99.90
2018-01-18T12:25:56.406Z,99.90
2018-01-18T12:28:23.964Z,99.90
2018-01-18T12:30:51.545Z,99.90
2018-01-18T12:33:20.074Z,99.90
2018-01-18T12:35:48.442Z,99.90
2018-01-18T12:38:16.236Z,99.90
2018-01-18T12:40:43.790Z,99.10
2018-01-18T12:43:11.445Z,98.50
2018-01-18T12:45:39.017Z,97.80
2018-01-18T12:48:06.666Z,97.30
2018-01-18T12:50:34.257Z,97.70
2018-01-18T12:53:02.884Z,97.20
2018-01-18T12:55:30.456Z,97.20
2018-01-18T12:57:58.045Z,96.90
2018-01-18T13:00:25.609Z,96.70
2018-01-18T13:02:54.251Z,96.70
2018-01-18T13:05:22.335Z,96.70
2018-01-18T13:07:50.013Z,96.80
2018-01-18T13:10:17.607Z,97.00
2018-01-18T13:12:45.189Z,96.80
2018-01-18T13:15:12.780Z,96.70
2018-01-18T13:17:40.425Z,96.90
2018-01-18T13:20:08.028Z,96.70
2018-01-18T13:22:36.631Z,96.60
2018-01-18T13:25:04.987Z,96.90
2018-01-18T13:27:32.737Z,96.90
2018-01-18T13:30:01.107Z,97.60
2018-01-18T13:32:28.923Z,97.50
2018-01-18T13:34:57.293Z,97.90
2018-01-18T13:37:25.045Z,97.90
2018-01-18T13:39:53.712Z,98.50
2018-01-18T13:42:21.413Z,98.30
2018-01-18T13:44:49.031Z,98.00
2018-01-18T13:47:17.572Z,97.70
2018-01-18T13:49:45.166Z,96.60
2018-01-18T13:52:12.800Z,97.20
2018-01-18T13:54:41.130Z,97.90
2018-01-18T13:57:08.727Z,97.80
2018-01-18T13:59:36.314Z,97.60
2018-01-18T14:02:03.935Z,97.30
2018-01-18T14:04:31.522Z,97.60
2018-01-18T14:07:00.068Z,97.40
2018-01-18T14:09:27.647Z,97.20
2018-01-18T14:11:55.257Z,97.80
2018-01-18T14:14:23.763Z,97.70
2018-01-18T14:16:51.363Z,97.20
2018-01-18T14:19:18.946Z,97.90
2018-01-18T14:21:46.608Z,96.80
2018-01-18T14:24:14.197Z,96.80
2018-01-18T14:26:41.791Z,96.00
2018-01-18T14:29:09.393Z,96.00
2018-01-18T14:31:37.942Z,96.10
2018-01-18T14:34:05.552Z,96.80
2018-01-18T14:36:34.143Z,96.70
2018-01-18T14:39:01.737Z,97.30
2018-01-18T14:41:29.317Z,98.10
2018-01-18T14:43:56.921Z,97.10
2018-01-18T14:46:24.499Z,98.30
2018-01-18T14:48:53.168Z,98.50
2018-01-18T14:51:21.567Z,98.50
2018-01-18T14:53:50.692Z,98.50
2018-01-18T14:56:19.354Z,98.50
2018-01-18T14:58:46.951Z,98.40
2018-01-18T15:01:14.539Z,99.70
2018-01-18T15:03:42.853Z,99.40
2018-01-18T15:06:10.704Z,99.40
2018-01-18T15:08:38.289Z,99.10
2018-01-18T15:11:05.883Z,99.20
2018-01-18T15:13:33.454Z,99.20
2018-01-18T15:16:01.065Z,99.10
2018-01-18T15:18:28.640Z,99.10
2018-01-18T15:20:56.309Z,99.20
2018-01-18T15:23:25.106Z,98.10
2018-01-18T15:25:53.632Z,98.00
2018-01-18T15:28:21.244Z,98.70
2018-01-18T15:30:48.869Z,98.50
2018-01-18T15:33:17.243Z,97.90
2018-01-18T15:35:45.088Z,97.90
2018-01-18T15:38:13.388Z,97.70
2018-01-18T15:40:41.160Z,97.00
2018-01-18T15:43:08.752Z,97.20
2018-01-18T15:45:36.374Z,97.50
2018-01-18T15:48:03.977Z,97.70
2018-01-18T15:50:32.630Z,98.10
2018-01-18T15:53:00.249Z,97.70
2018-01-18T15:55:28.146Z,97.20
2018-01-18T15:57:56.516Z,97.30
2018-01-18T16:00:24.226Z,97.30
2018-01-18T16:02:52.346Z,97.80
2018-01-18T16:05:20.115Z,97.70
2018-01-18T16:07:47.703Z,97.50
2018-01-18T16:10:15.292Z,98.00
2018-01-18T16:12:42.874Z,97.50
2018-01-18T16:15:10.512Z,97.20
2018-01-18T16:17:38.892Z,98.00
2018-01-18T16:20:06.638Z,98.00
2018-01-18T16:22:34.207Z,98.70
2018-01-18T16:25:01.844Z,99.60
2018-01-18T16:27:29.425Z,99.90
2018-01-18T16:29:57.071Z,99.90
2018-01-18T16:32:24.638Z,99.90
2018-01-18T16:34:53.265Z,99.90
2018-01-18T16:37:20.876Z,99.90
2018-01-18T16:39:48.439Z,99.90
2018-01-18T16:42:16.022Z,99.90
2018-01-18T16:44:43.631Z,99.90
2018-01-18T16:47:11.236Z,99.90
2018-01-18T16:49:38.859Z,99.90
2018-01-18T16:52:06.469Z,99.90
2018-01-18T16:54:34.077Z,99.90
2018-01-18T16:57:01.710Z,99.90
2018-01-18T16:59:29.290Z,99.90
2018-01-18T17:01:57.682Z,99.90
2018-01-18T17:04:25.533Z,99.90
2018-01-18T17:06:54.149Z,99.90
2018-01-18T17:09:22.346Z,99.90
2018-01-18T17:11:50.736Z,99.90
2018-01-18T17:14:18.386Z,99.90
2018-01-18T17:16:45.991Z,99.90
2018-01-18T17:19:13.610Z,99.90
2018-01-18T17:21:41.215Z,99.90
2018-01-18T17:24:10.098Z,99.90
2018-01-18T17:26:37.715Z,99.90
2018-01-18T17:29:06.191Z,99.90
2018-01-18T17:31:33.765Z,99.90
2018-01-18T17:34:01.366Z,99.90
2018-01-18T17:36:28.965Z,99.90
2018-01-18T17:38:57.896Z,99.90
2018-01-18T17:41:25.464Z,99.90
2018-01-18T17:43:53.067Z,99.90
2018-01-18T17:46:21.421Z,99.90
2018-01-18T17:48:49.210Z,99.90
2018-01-18T17:51:16.791Z,99.90
2018-01-18T17:53:45.349Z,99.90
2018-01-18T17:56:13.702Z,99.90
2018-01-18T17:58:41.467Z,99.90
2018-01-18T18:01:09.071Z,99.90
2018-01-18T18:03:36.656Z,99.90
2018-01-18T18:06:04.232Z,99.90
2018-01-18T18:08:31.882Z,99.90
2018-01-18T18:11:00.265Z,99.90
2018-01-18T18:13:29.034Z,99.90
2018-01-18T18:15:56.633Z,99.90
2018-01-18T18:18:24.241Z,99.90
2018-01-18T18:20:52.900Z,99.90
2018-01-18T18:23:20.677Z,99.90
2018-01-18T18:25:49.051Z,99.90
2018-01-18T18:28:16.784Z,99.90
2018-01-18T18:30:44.387Z,99.90
2018-01-18T18:33:12.971Z,99.90
2018-01-18T18:35:40.581Z,99.90
2018-01-18T18:38:08.175Z,99.90
2018-01-18T18:40:35.789Z,99.90
2018-01-18T18:43:09.343Z,99.90
2018-01-18T18:45:37.726Z,99.90
2018-01-18T18:48:05.310Z,99.90
2018-01-18T18:50:32.908Z,99.90
2018-01-18T18:53:03.414Z,99.90
2018-01-18T18:55:30.991Z,99.90
2018-01-18T18:57:58.602Z,99.90
2018-01-18T19:00:26.184Z,99.90
2018-01-18T19:02:55.060Z,99.90
2018-01-18T19:05:23.478Z,99.90
2018-01-18T19:07:51.136Z,99.90
2018-01-18T19:10:18.726Z,99.90
2018-01-18T19:12:46.361Z,99.90
2018-01-18T19:15:13.952Z,99.90
2018-01-18T19:17:41.572Z,99.80
2018-01-18T19:20:09.917Z,99.70
2018-01-18T19:22:37.828Z,99.70
2018-01-18T19:25:05.392Z,99.30
2018-01-18T19:27:32.994Z,99.60
2018-01-18T19:30:00.612Z,99.40
2018-01-18T19:32:28.171Z,99.30
2018-01-18T19:34:55.778Z,98.90
2018-01-18T19:37:24.289Z,99.20
2018-01-18T19:39:52.403Z,99.20
2018-01-18T19:42:20.183Z,99.30
2018-01-18T19:44:47.803Z,99.20
2018-01-18T19:47:15.376Z,99.00
2018-01-18T19:49:42.999Z,98.90
2018-01-18T19:52:10.603Z,98.90
2018-01-18T19:54:38.967Z,99.00
2018-01-18T19:57:06.704Z,99.00
2018-01-18T19:59:35.062Z,98.90
2018-01-18T20:02:03.468Z,98.80
2018-01-18T20:04:31.061Z,98.70
2018-01-18T20:06:58.661Z,98.50
2018-01-18T20:09:26.283Z,98.60
2018-01-18T20:11:54.409Z,98.60
2018-01-18T20:14:23.623Z,98.30
2018-01-18T20:16:51.295Z,98.30
2018-01-18T20:19:18.892Z,98.50
2018-01-18T20:21:46.498Z,98.40
2018-01-18T20:24:14.078Z,98.10
2018-01-18T20:26:41.729Z,98.30
2018-01-18T20:29:09.319Z,98.10
2018-01-18T20:31:36.936Z,98.00
2018-01-18T20:34:05.277Z,97.70
2018-01-18T20:36:33.100Z,97.70
2018-01-18T20:39:00.682Z,97.80
2018-01-18T20:41:28.327Z,97.90
2018-01-18T20:43:55.909Z,97.50
2018-01-18T20:46:24.121Z,97.50
2018-01-18T20:48:53.283Z,97.40
2018-01-18T20:51:20.864Z,97.40
2018-01-18T20:53:48.461Z,97.00
2018-01-18T20:56:16.079Z,97.10
2018-01-18T20:58:43.683Z,96.90
2018-01-18T21:01:12.235Z,97.00
2018-01-18T21:03:39.834Z,97.00
2018-01-18T21:06:07.464Z,97.00
2018-01-18T21:08:35.822Z,97.10
2018-01-18T21:11:03.655Z,97.10
2018-01-18T21:13:31.999Z,97.10
2018-01-18T21:15:59.756Z,97.10
2018-01-18T21:18:28.133Z,96.90
2018-01-18T21:20:55.962Z,97.00
2018-01-18T21:23:24.760Z,97.20
2018-01-18T21:25:54.098Z,97.20
2018-01-18T21:28:22.504Z,97.20
2018-01-18T21:30:50.080Z,97.30
2018-01-18T21:33:17.674Z,97.30
2018-01-18T21:35:45.276Z,97.20
2018-01-18T21:38:12.854Z,97.20
2018-01-18T21:40:40.455Z,97.30
2018-01-18T21:43:08.036Z,97.20
2018-01-18T21:45:35.645Z,97.20
2018-01-18T21:48:03.228Z,97.30
2018-01-18T21:50:30.817Z,97.30
2018-01-18T21:52:58.380Z,97.30
2018-01-18T21:55:25.994Z,97.20
2018-01-18T21:57:54.787Z,97.20
2018-01-18T22:00:23.449Z,97.20
2018-01-18T22:02:51.008Z,97.40
2018-01-18T22:05:18.586Z,97.00
2018-01-18T22:07:46.177Z,97.30
2018-01-18T22:10:14.531Z,97.20
2018-01-18T22:12:42.117Z,97.40
2018-01-18T22:15:09.711Z,97.40
2018-01-18T22:17:37.308Z,97.50
2018-01-18T22:20:04.874Z,97.50
2018-01-18T22:22:32.472Z,97.40
2018-01-18T22:25:00.055Z,97.60
2018-01-18T22:27:27.652Z,97.80
2018-01-18T22:29:55.242Z,97.90
2018-01-18T22:32:24.884Z,98.00
2018-01-18T22:34:53.840Z,98.00
2018-01-18T22:37:21.408Z,98.10
2018-01-18T22:39:49.769Z,98.40
2018-01-18T22:42:17.344Z,98.40
2018-01-18T22:44:44.958Z,98.30
2018-01-18T22:47:12.519Z,98.40
2018-01-18T22:49:40.122Z,98.30
2018-01-18T22:52:07.694Z,98.30
2018-01-18T22:54:35.297Z,98.30
2018-01-18T22:57:02.865Z,98.40
2018-01-18T22:59:30.452Z,98.90
2018-01-18T23:01:58.032Z,98.80
2018-01-18T23:04:25.615Z,98.90
2018-01-18T23:06:54.411Z,98.70
2018-01-18T23:09:22.594Z,98.60
2018-01-18T23:11:50.231Z,98.50
2018-01-18T23:14:18.565Z,98.40
2018-01-18T23:16:46.177Z,98.30
2018-01-18T23:19:13.759Z,98.40
2018-01-18T23:21:42.122Z,98.30
2018-01-18T23:24:10.455Z,98.30
2018-01-18T23:26:38.026Z,98.30
2018-01-18T23:29:05.631Z,98.60
2018-01-18T23:31:33.218Z,98.70
2018-01-18T23:34:00.813Z,98.90
2018-01-18T23:36:28.392Z,99.00
2018-01-18T23:38:55.984Z,99.00
2018-01-18T23:41:24.692Z,99.00
2018-01-18T23:43:53.358Z,99.10
2018-01-18T23:46:20.928Z,99.20
2018-01-18T23:48:49.302Z,99.50
2018-01-18T23:51:16.889Z,99.40
2018-01-18T23:53:44.471Z,99.40
2018-01-18T23:56:12.045Z,99.50
2018-01-18T23:58:39.657Z,99.50
